sensor_id;sensor_type;location;lat;lon;timestamp;P1;durP1;ratioP1;P2;durP2;ratioP2
46755;SDS011;32506;52.826;-1.192;2023-03-14T00:00:18;2.88;;;0.70;;
46755;SDS011;32506;52.826;-1.192;2023-03-14T00:02:44;1.88;;;0.60;;
46755;SDS011;32506;52.826;-1.192;2023-03-14T00:05:09;3.17;;;0.68;;
46755;SDS011;32506;52.826;-1.192;2023-03-14T00:07:36;4.18;;;0.80;;
46755;SDS011;32506;52.826;-1.192;2023-03-14T00:10:13;4.40;;;0.80;;
46755;SDS011;32506;52.826;-1.192;2023-03-14T00:12:40;4.20;;;0.80;;
46755;SDS011;32506;52.826;-1.192;2023-03-14T00:15:06;3.70;;;0.70;;
46755;SDS011;32506;52.826;-1.192;2023-03-14T00:17:33;3.67;;;0.90;;
46755;SDS011;32506;52.826;-1.192;2023-03-14T00:19:59;3.63;;;1.00;;
46755;SDS011;32506;52.826;-1.192;2023-03-14T00:22:29;5.65;;;0.70;;
46755;SDS011;32506;52.826;-1.192;2023-03-14T00:24:57;5.30;;;0.68;;
46755;SDS011;32506;52.826;-1.192;2023-03-14T00:27:23;2.80;;;0.55;;
46755;SDS011;32506;52.826;-1.192;2023-03-14T00:29:48;4.90;;;0.70;;
46755;SDS011;32506;52.826;-1.192;2023-03-14T00:32:13;2.08;;;0.55;;
46755;SDS011;32506;52.826;-1.192;2023-03-14T00:34:39;3.53;;;0.63;;
46755;SDS011;32506;52.826;-1.192;2023-03-14T00:37:05;4.50;;;1.33;;
46755;SDS011;32506;52.826;-1.192;2023-03-14T00:39:31;3.80;;;0.70;;
46755;SDS011;32506;52.826;-1.192;2023-03-14T00:41:56;2.67;;;0.55;;
46755;SDS011;32506;52.826;-1.192;2023-03-14T00:44:22;2.05;;;0.50;;
46755;SDS011;32506;52.826;-1.192;2023-03-14T00:46:47;3.85;;;0.60;;
46755;SDS011;32506;52.826;-1.192;2023-03-14T00:49:13;1.85;;;0.43;;
46755;SDS011;32506;52.826;-1.192;2023-03-14T00:51:38;2.45;;;0.50;;
46755;SDS011;32506;52.826;-1.192;2023-03-14T00:54:03;0.52;;;0.20;;
46755;SDS011;32506;52.826;-1.192;2023-03-14T00:56:30;0.88;;;0.40;;
46755;SDS011;32506;52.826;-1.192;2023-03-14T00:58:56;2.38;;;0.43;;
46755;SDS011;32506;52.826;-1.192;2023-03-14T01:01:22;2.80;;;0.40;;
46755;SDS011;32506;52.826;-1.192;2023-03-14T01:03:51;1.42;;;0.40;;
46755;SDS011;32506;52.826;-1.192;2023-03-14T01:06:18;1.20;;;0.32;;
46755;SDS011;32506;52.826;-1.192;2023-03-14T01:08:46;0.95;;;0.30;;
46755;SDS011;32506;52.826;-1.192;2023-03-14T01:11:13;1.35;;;0.38;;
46755;SDS011;32506;52.826;-1.192;2023-03-14T01:13:41;1.67;;;0.50;;
46755;SDS011;32506;52.826;-1.192;2023-03-14T01:16:08;1.17;;;0.22;;
46755;SDS011;32506;52.826;-1.192;2023-03-14T01:18:34;1.13;;;0.40;;
46755;SDS011;32506;52.826;-1.192;2023-03-14T01:21:01;0.50;;;0.30;;
46755;SDS011;32506;52.826;-1.192;2023-03-14T01:23:27;0.90;;;0.30;;
46755;SDS011;32506;52.826;-1.192;2023-03-14T01:25:53;0.95;;;0.32;;
46755;SDS011;32506;52.826;-1.192;2023-03-14T01:28:18;0.65;;;0.30;;
46755;SDS011;32506;52.826;-1.192;2023-03-14T01:30:44;0.70;;;0.20;;
46755;SDS011;32506;52.826;-1.192;2023-03-14T01:33:09;1.05;;;0.40;;
46755;SDS011;32506;52.826;-1.192;2023-03-14T01:35:36;1.80;;;0.47;;
46755;SDS011;32506;52.826;-1.192;2023-03-14T01:38:01;0.98;;;0.30;;
46755;SDS011;32506;52.826;-1.192;2023-03-14T01:40:27;0.17;;;0.10;;
46755;SDS011;32506;52.826;-1.192;2023-03-14T01:42:56;0.47;;;0.20;;
46755;SDS011;32506;52.826;-1.192;2023-03-14T01:48:26;0.50;;;0.25;;
46755;SDS011;32506;52.826;-1.192;2023-03-14T01:50:56;0.63;;;0.20;;
46755;SDS011;32506;52.826;-1.192;2023-03-14T01:53:24;1.05;;;0.35;;
46755;SDS011;32506;52.826;-1.192;2023-03-14T01:55:50;1.13;;;0.68;;
46755;SDS011;32506;52.826;-1.192;2023-03-14T01:58:18;0.90;;;0.20;;
46755;SDS011;32506;52.826;-1.192;2023-03-14T02:00:45;0.65;;;0.20;;
46755;SDS011;32506;52.826;-1.192;2023-03-14T02:03:12;0.45;;;0.20;;
46755;SDS011;32506;52.826;-1.192;2023-03-14T02:05:42;1.42;;;0.63;;
46755;SDS011;32506;52.826;-1.192;2023-03-14T02:08:13;0.32;;;0.20;;
46755;SDS011;32506;52.826;-1.192;2023-03-14T02:10:44;0.28;;;0.15;;
46755;SDS011;32506;52.826;-1.192;2023-03-14T02:13:11;0.30;;;0.17;;
46755;SDS011;32506;52.826;-1.192;2023-03-14T02:15:39;0.13;;;0.10;;
46755;SDS011;32506;52.826;-1.192;2023-03-14T02:18:04;0.30;;;0.20;;
46755;SDS011;32506;52.826;-1.192;2023-03-14T02:22:59;0.43;;;0.10;;
46755;SDS011;32506;52.826;-1.192;2023-03-14T02:27:54;0.63;;;0.20;;
46755;SDS011;32506;52.826;-1.192;2023-03-14T02:30:20;1.25;;;0.77;;
46755;SDS011;32506;52.826;-1.192;2023-03-14T02:32:58;0.28;;;0.10;;
46755;SDS011;32506;52.826;-1.192;2023-03-14T02:35:29;0.63;;;0.20;;
46755;SDS011;32506;52.826;-1.192;2023-03-14T02:38:00;0.28;;;0.10;;
46755;SDS011;32506;52.826;-1.192;2023-03-14T02:40:35;0.60;;;0.20;;
46755;SDS011;32506;52.826;-1.192;2023-03-14T02:43:01;0.98;;;0.20;;
46755;SDS011;32506;52.826;-1.192;2023-03-14T02:45:44;0.40;;;0.10;;
46755;SDS011;32506;52.826;-1.192;2023-03-14T02:48:25;0.93;;;0.20;;
46755;SDS011;32506;52.826;-1.192;2023-03-14T02:51:20;0.20;;;0.10;;
46755;SDS011;32506;52.826;-1.192;2023-03-14T02:53:47;0.40;;;0.10;;
46755;SDS011;32506;52.826;-1.192;2023-03-14T02:56:12;0.25;;;0.10;;
46755;SDS011;32506;52.826;-1.192;2023-03-14T02:58:38;0.20;;;0.20;;
46755;SDS011;32506;52.826;-1.192;2023-03-14T03:01:04;0.35;;;0.30;;
46755;SDS011;32506;52.826;-1.192;2023-03-14T03:03:30;1.20;;;0.30;;
46755;SDS011;32506;52.826;-1.192;2023-03-14T03:05:55;0.40;;;0.20;;
46755;SDS011;32506;52.826;-1.192;2023-03-14T03:08:22;0.30;;;0.10;;
46755;SDS011;32506;52.826;-1.192;2023-03-14T03:10:49;0.75;;;0.30;;
46755;SDS011;32506;52.826;-1.192;2023-03-14T03:13:15;0.68;;;0.30;;
46755;SDS011;32506;52.826;-1.192;2023-03-14T03:15:42;0.30;;;0.25;;
46755;SDS011;32506;52.826;-1.192;2023-03-14T03:18:07;0.43;;;0.20;;
46755;SDS011;32506;52.826;-1.192;2023-03-14T03:20:33;0.70;;;0.30;;
46755;SDS011;32506;52.826;-1.192;2023-03-14T03:22:59;0.45;;;0.20;;
46755;SDS011;32506;52.826;-1.192;2023-03-14T03:25:24;0.47;;;0.30;;
46755;SDS011;32506;52.826;-1.192;2023-03-14T03:27:51;0.82;;;0.20;;
46755;SDS011;32506;52.826;-1.192;2023-03-14T03:30:16;1.27;;;0.28;;
46755;SDS011;32506;52.826;-1.192;2023-03-14T03:32:42;0.82;;;0.30;;
46755;SDS011;32506;52.826;-1.192;2023-03-14T03:35:08;2.55;;;0.22;;
46755;SDS011;32506;52.826;-1.192;2023-03-14T03:37:34;0.30;;;0.20;;
46755;SDS011;32506;52.826;-1.192;2023-03-14T03:40:00;0.73;;;0.35;;
46755;SDS011;32506;52.826;-1.192;2023-03-14T03:42:28;0.90;;;0.25;;
46755;SDS011;32506;52.826;-1.192;2023-03-14T03:44:54;0.95;;;0.60;;
46755;SDS011;32506;52.826;-1.192;2023-03-14T03:47:19;1.55;;;0.30;;
46755;SDS011;32506;52.826;-1.192;2023-03-14T03:49:44;0.57;;;0.32;;
46755;SDS011;32506;52.826;-1.192;2023-03-14T03:52:10;1.70;;;0.90;;
46755;SDS011;32506;52.826;-1.192;2023-03-14T03:54:35;0.40;;;0.40;;
46755;SDS011;32506;52.826;-1.192;2023-03-14T03:57:01;2.08;;;0.60;;
46755;SDS011;32506;52.826;-1.192;2023-03-14T03:59:26;1.42;;;0.40;;
46755;SDS011;32506;52.826;-1.192;2023-03-14T04:01:52;1.92;;;0.40;;
46755;SDS011;32506;52.826;-1.192;2023-03-14T04:04:17;2.33;;;0.40;;
46755;SDS011;32506;52.826;-1.192;2023-03-14T04:06:43;1.40;;;0.60;;
46755;SDS011;32506;52.826;-1.192;2023-03-14T04:09:09;0.60;;;0.25;;
46755;SDS011;32506;52.826;-1.192;2023-03-14T04:11:35;1.48;;;0.32;;
46755;SDS011;32506;52.826;-1.192;2023-03-14T04:14:01;0.77;;;0.30;;
46755;SDS011;32506;52.826;-1.192;2023-03-14T04:16:27;2.72;;;0.50;;
46755;SDS011;32506;52.826;-1.192;2023-03-14T04:18:53;0.95;;;0.50;;
46755;SDS011;32506;52.826;-1.192;2023-03-14T04:21:18;1.90;;;0.40;;
46755;SDS011;32506;52.826;-1.192;2023-03-14T04:23:44;0.63;;;0.30;;
46755;SDS011;32506;52.826;-1.192;2023-03-14T04:26:10;2.08;;;0.50;;
46755;SDS011;32506;52.826;-1.192;2023-03-14T04:28:35;1.98;;;0.50;;
46755;SDS011;32506;52.826;-1.192;2023-03-14T04:31:15;0.95;;;0.60;;
46755;SDS011;32506;52.826;-1.192;2023-03-14T04:33:42;1.15;;;0.35;;
46755;SDS011;32506;52.826;-1.192;2023-03-14T04:36:08;0.32;;;0.30;;
46755;SDS011;32506;52.826;-1.192;2023-03-14T04:38:34;2.75;;;0.50;;
46755;SDS011;32506;52.826;-1.192;2023-03-14T04:40:59;1.58;;;0.50;;
46755;SDS011;32506;52.826;-1.192;2023-03-14T04:43:25;2.85;;;0.57;;
46755;SDS011;32506;52.826;-1.192;2023-03-14T04:45:53;0.68;;;0.38;;
46755;SDS011;32506;52.826;-1.192;2023-03-14T04:48:19;0.88;;;0.40;;
46755;SDS011;32506;52.826;-1.192;2023-03-14T04:50:46;2.50;;;0.55;;
46755;SDS011;32506;52.826;-1.192;2023-03-14T04:53:12;2.97;;;1.40;;
46755;SDS011;32506;52.826;-1.192;2023-03-14T04:55:38;6.28;;;1.13;;
46755;SDS011;32506;52.826;-1.192;2023-03-14T04:58:04;3.58;;;0.60;;
46755;SDS011;32506;52.826;-1.192;2023-03-14T05:00:29;2.20;;;0.50;;
46755;SDS011;32506;52.826;-1.192;2023-03-14T05:02:55;2.35;;;0.57;;
46755;SDS011;32506;52.826;-1.192;2023-03-14T05:05:21;2.25;;;0.43;;
46755;SDS011;32506;52.826;-1.192;2023-03-14T05:07:46;0.77;;;0.45;;
46755;SDS011;32506;52.826;-1.192;2023-03-14T05:10:12;3.15;;;0.70;;
46755;SDS011;32506;52.826;-1.192;2023-03-14T05:12:37;2.13;;;0.60;;
46755;SDS011;32506;52.826;-1.192;2023-03-14T05:15:03;1.42;;;0.65;;
46755;SDS011;32506;52.826;-1.192;2023-03-14T05:17:29;3.05;;;0.70;;
46755;SDS011;32506;52.826;-1.192;2023-03-14T05:19:57;2.45;;;0.80;;
46755;SDS011;32506;52.826;-1.192;2023-03-14T05:22:22;2.25;;;0.38;;
46755;SDS011;32506;52.826;-1.192;2023-03-14T05:24:48;1.80;;;0.90;;
46755;SDS011;32506;52.826;-1.192;2023-03-14T05:27:13;4.00;;;0.80;;
46755;SDS011;32506;52.826;-1.192;2023-03-14T05:29:39;1.88;;;0.63;;
46755;SDS011;32506;52.826;-1.192;2023-03-14T05:32:04;1.42;;;0.82;;
46755;SDS011;32506;52.826;-1.192;2023-03-14T05:34:30;1.42;;;0.60;;
46755;SDS011;32506;52.826;-1.192;2023-03-14T05:36:55;2.22;;;0.80;;
46755;SDS011;32506;52.826;-1.192;2023-03-14T05:39:21;3.72;;;0.60;;
46755;SDS011;32506;52.826;-1.192;2023-03-14T05:41:47;3.50;;;0.60;;
46755;SDS011;32506;52.826;-1.192;2023-03-14T05:44:12;1.55;;;0.63;;
46755;SDS011;32506;52.826;-1.192;2023-03-14T05:46:38;3.45;;;0.55;;
46755;SDS011;32506;52.826;-1.192;2023-03-14T05:49:03;1.90;;;0.60;;
46755;SDS011;32506;52.826;-1.192;2023-03-14T05:51:29;4.13;;;0.70;;
46755;SDS011;32506;52.826;-1.192;2023-03-14T05:53:54;3.55;;;1.10;;
46755;SDS011;32506;52.826;-1.192;2023-03-14T05:56:20;3.03;;;0.70;;
46755;SDS011;32506;52.826;-1.192;2023-03-14T05:58:45;1.35;;;0.40;;
46755;SDS011;32506;52.826;-1.192;2023-03-14T06:01:10;2.85;;;0.52;;
46755;SDS011;32506;52.826;-1.192;2023-03-14T06:03:36;3.25;;;0.70;;
46755;SDS011;32506;52.826;-1.192;2023-03-14T06:06:01;2.85;;;0.80;;
46755;SDS011;32506;52.826;-1.192;2023-03-14T06:08:27;4.82;;;0.85;;
46755;SDS011;32506;52.826;-1.192;2023-03-14T06:10:53;4.55;;;0.80;;
46755;SDS011;32506;52.826;-1.192;2023-03-14T06:13:19;5.03;;;1.10;;
46755;SDS011;32506;52.826;-1.192;2023-03-14T06:15:45;4.30;;;0.70;;
46755;SDS011;32506;52.826;-1.192;2023-03-14T06:18:10;4.15;;;1.00;;
46755;SDS011;32506;52.826;-1.192;2023-03-14T06:20:37;4.38;;;0.90;;
46755;SDS011;32506;52.826;-1.192;2023-03-14T06:23:06;4.65;;;0.82;;
46755;SDS011;32506;52.826;-1.192;2023-03-14T06:25:32;6.28;;;1.63;;
46755;SDS011;32506;52.826;-1.192;2023-03-14T06:27:58;5.93;;;1.27;;
46755;SDS011;32506;52.826;-1.192;2023-03-14T06:30:24;3.53;;;0.98;;
46755;SDS011;32506;52.826;-1.192;2023-03-14T06:32:49;6.35;;;1.00;;
46755;SDS011;32506;52.826;-1.192;2023-03-14T06:35:15;10.18;;;1.52;;
46755;SDS011;32506;52.826;-1.192;2023-03-14T06:37:41;6.45;;;1.05;;
46755;SDS011;32506;52.826;-1.192;2023-03-14T06:40:07;5.57;;;1.02;;
46755;SDS011;32506;52.826;-1.192;2023-03-14T06:42:33;4.82;;;0.80;;
46755;SDS011;32506;52.826;-1.192;2023-03-14T06:44:59;5.95;;;1.10;;
46755;SDS011;32506;52.826;-1.192;2023-03-14T06:47:24;4.25;;;0.90;;
46755;SDS011;32506;52.826;-1.192;2023-03-14T06:49:50;6.43;;;1.55;;
46755;SDS011;32506;52.826;-1.192;2023-03-14T06:52:15;4.88;;;1.15;;
46755;SDS011;32506;52.826;-1.192;2023-03-14T06:54:41;6.32;;;1.40;;
46755;SDS011;32506;52.826;-1.192;2023-03-14T06:57:06;8.00;;;1.35;;
46755;SDS011;32506;52.826;-1.192;2023-03-14T06:59:32;3.78;;;0.80;;
46755;SDS011;32506;52.826;-1.192;2023-03-14T07:01:57;4.38;;;1.55;;
46755;SDS011;32506;52.826;-1.192;2023-03-14T07:04:23;7.88;;;1.42;;
46755;SDS011;32506;52.826;-1.192;2023-03-14T07:06:48;6.68;;;1.27;;
46755;SDS011;32506;52.826;-1.192;2023-03-14T07:09:14;6.90;;;1.10;;
46755;SDS011;32506;52.826;-1.192;2023-03-14T07:11:42;7.53;;;1.30;;
46755;SDS011;32506;52.826;-1.192;2023-03-14T07:14:07;7.10;;;1.33;;
46755;SDS011;32506;52.826;-1.192;2023-03-14T07:16:33;4.40;;;1.20;;
46755;SDS011;32506;52.826;-1.192;2023-03-14T07:18:59;7.07;;;1.50;;
46755;SDS011;32506;52.826;-1.192;2023-03-14T07:21:26;7.82;;;1.60;;
46755;SDS011;32506;52.826;-1.192;2023-03-14T07:23:51;8.13;;;1.48;;
46755;SDS011;32506;52.826;-1.192;2023-03-14T07:26:16;10.52;;;1.50;;
46755;SDS011;32506;52.826;-1.192;2023-03-14T07:28:42;5.75;;;1.48;;
46755;SDS011;32506;52.826;-1.192;2023-03-14T07:31:07;5.22;;;0.75;;
46755;SDS011;32506;52.826;-1.192;2023-03-14T07:33:33;6.65;;;1.67;;
46755;SDS011;32506;52.826;-1.192;2023-03-14T07:35:59;6.28;;;1.15;;
46755;SDS011;32506;52.826;-1.192;2023-03-14T07:38:25;9.10;;;1.27;;
46755;SDS011;32506;52.826;-1.192;2023-03-14T07:40:50;4.20;;;1.17;;
46755;SDS011;32506;52.826;-1.192;2023-03-14T07:43:22;5.97;;;1.00;;
46755;SDS011;32506;52.826;-1.192;2023-03-14T07:45:47;11.60;;;2.40;;
46755;SDS011;32506;52.826;-1.192;2023-03-14T07:48:13;6.97;;;1.75;;
46755;SDS011;32506;52.826;-1.192;2023-03-14T07:50:38;7.60;;;1.77;;
46755;SDS011;32506;52.826;-1.192;2023-03-14T07:53:04;6.65;;;0.90;;
46755;SDS011;32506;52.826;-1.192;2023-03-14T07:55:29;7.80;;;1.10;;
46755;SDS011;32506;52.826;-1.192;2023-03-14T07:57:55;6.45;;;1.95;;
46755;SDS011;32506;52.826;-1.192;2023-03-14T08:00:20;6.10;;;1.42;;
46755;SDS011;32506;52.826;-1.192;2023-03-14T08:02:46;7.63;;;1.55;;
46755;SDS011;32506;52.826;-1.192;2023-03-14T08:05:11;5.05;;;1.40;;
46755;SDS011;32506;52.826;-1.192;2023-03-14T08:07:37;4.97;;;1.52;;
46755;SDS011;32506;52.826;-1.192;2023-03-14T08:10:03;4.70;;;0.80;;
46755;SDS011;32506;52.826;-1.192;2023-03-14T08:12:29;5.60;;;0.90;;
46755;SDS011;32506;52.826;-1.192;2023-03-14T08:14:54;6.13;;;1.30;;
46755;SDS011;32506;52.826;-1.192;2023-03-14T08:17:20;6.00;;;1.27;;
46755;SDS011;32506;52.826;-1.192;2023-03-14T08:19:45;2.95;;;0.90;;
46755;SDS011;32506;52.826;-1.192;2023-03-14T08:22:10;4.45;;;0.77;;
46755;SDS011;32506;52.826;-1.192;2023-03-14T08:24:36;5.00;;;1.13;;
46755;SDS011;32506;52.826;-1.192;2023-03-14T08:27:01;4.43;;;1.00;;
46755;SDS011;32506;52.826;-1.192;2023-03-14T08:29:27;7.22;;;1.48;;
46755;SDS011;32506;52.826;-1.192;2023-03-14T08:31:52;5.30;;;1.58;;
46755;SDS011;32506;52.826;-1.192;2023-03-14T08:34:19;7.45;;;1.38;;
46755;SDS011;32506;52.826;-1.192;2023-03-14T08:36:45;9.30;;;1.67;;
46755;SDS011;32506;52.826;-1.192;2023-03-14T08:39:11;6.47;;;1.85;;
46755;SDS011;32506;52.826;-1.192;2023-03-14T08:41:36;5.63;;;1.80;;
46755;SDS011;32506;52.826;-1.192;2023-03-14T08:44:05;9.13;;;1.52;;
46755;SDS011;32506;52.826;-1.192;2023-03-14T08:46:32;6.07;;;1.30;;
46755;SDS011;32506;52.826;-1.192;2023-03-14T08:48:57;7.35;;;2.05;;
46755;SDS011;32506;52.826;-1.192;2023-03-14T08:51:23;9.13;;;2.00;;
46755;SDS011;32506;52.826;-1.192;2023-03-14T08:53:48;6.05;;;1.38;;
46755;SDS011;32506;52.826;-1.192;2023-03-14T08:56:14;9.18;;;1.52;;
46755;SDS011;32506;52.826;-1.192;2023-03-14T08:58:39;10.02;;;1.90;;
46755;SDS011;32506;52.826;-1.192;2023-03-14T09:01:07;6.85;;;1.52;;
46755;SDS011;32506;52.826;-1.192;2023-03-14T09:03:34;6.88;;;1.30;;
46755;SDS011;32506;52.826;-1.192;2023-03-14T09:06:03;12.02;;;2.45;;
46755;SDS011;32506;52.826;-1.192;2023-03-14T09:08:30;7.78;;;1.85;;
46755;SDS011;32506;52.826;-1.192;2023-03-14T09:10:56;8.98;;;1.48;;
46755;SDS011;32506;52.826;-1.192;2023-03-14T09:13:22;7.85;;;1.98;;
46755;SDS011;32506;52.826;-1.192;2023-03-14T09:15:54;6.07;;;1.38;;
46755;SDS011;32506;52.826;-1.192;2023-03-14T09:18:23;10.65;;;2.25;;
46755;SDS011;32506;52.826;-1.192;2023-03-14T09:20:49;8.18;;;1.90;;
46755;SDS011;32506;52.826;-1.192;2023-03-14T09:23:15;11.85;;;1.70;;
46755;SDS011;32506;52.826;-1.192;2023-03-14T09:25:40;9.27;;;1.67;;
46755;SDS011;32506;52.826;-1.192;2023-03-14T09:28:06;5.07;;;1.48;;
46755;SDS011;32506;52.826;-1.192;2023-03-14T09:30:32;10.02;;;1.77;;
46755;SDS011;32506;52.826;-1.192;2023-03-14T09:32:57;9.73;;;1.95;;
46755;SDS011;32506;52.826;-1.192;2023-03-14T09:35:24;10.20;;;1.40;;
46755;SDS011;32506;52.826;-1.192;2023-03-14T09:37:50;12.02;;;1.50;;
46755;SDS011;32506;52.826;-1.192;2023-03-14T09:40:16;6.57;;;2.08;;
46755;SDS011;32506;52.826;-1.192;2023-03-14T09:42:43;4.93;;;1.48;;
46755;SDS011;32506;52.826;-1.192;2023-03-14T09:45:13;8.23;;;1.27;;
46755;SDS011;32506;52.826;-1.192;2023-03-14T09:48:19;4.22;;;1.20;;
46755;SDS011;32506;52.826;-1.192;2023-03-14T09:50:51;10.73;;;2.08;;
46755;SDS011;32506;52.826;-1.192;2023-03-14T09:53:20;6.93;;;2.75;;
46755;SDS011;32506;52.826;-1.192;2023-03-14T09:55:50;10.30;;;2.08;;
46755;SDS011;32506;52.826;-1.192;2023-03-14T09:58:20;11.00;;;2.15;;
46755;SDS011;32506;52.826;-1.192;2023-03-14T10:00:52;3.95;;;1.30;;
46755;SDS011;32506;52.826;-1.192;2023-03-14T10:03:33;8.23;;;1.50;;
46755;SDS011;32506;52.826;-1.192;2023-03-14T10:06:00;7.30;;;2.03;;
46755;SDS011;32506;52.826;-1.192;2023-03-14T10:08:26;10.10;;;1.70;;
46755;SDS011;32506;52.826;-1.192;2023-03-14T10:10:52;17.15;;;3.08;;
46755;SDS011;32506;52.826;-1.192;2023-03-14T10:13:22;9.63;;;1.88;;
46755;SDS011;32506;52.826;-1.192;2023-03-14T10:18:17;8.55;;;1.60;;
46755;SDS011;32506;52.826;-1.192;2023-03-14T10:20:44;11.27;;;1.52;;
46755;SDS011;32506;52.826;-1.192;2023-03-14T10:25:38;7.68;;;1.52;;
46755;SDS011;32506;52.826;-1.192;2023-03-14T10:28:11;7.35;;;1.75;;
46755;SDS011;32506;52.826;-1.192;2023-03-14T10:30:49;8.82;;;1.75;;
46755;SDS011;32506;52.826;-1.192;2023-03-14T10:35:43;10.00;;;1.90;;
46755;SDS011;32506;52.826;-1.192;2023-03-14T10:38:16;11.63;;;2.53;;
46755;SDS011;32506;52.826;-1.192;2023-03-14T10:40:49;12.50;;;2.33;;
46755;SDS011;32506;52.826;-1.192;2023-03-14T10:43:25;8.02;;;1.63;;
46755;SDS011;32506;52.826;-1.192;2023-03-14T10:45:59;7.68;;;1.15;;
46755;SDS011;32506;52.826;-1.192;2023-03-14T10:54:30;9.13;;;1.50;;
46755;SDS011;32506;52.826;-1.192;2023-03-14T10:57:01;11.82;;;1.85;;
46755;SDS011;32506;52.826;-1.192;2023-03-14T10:59:34;9.43;;;2.40;;
46755;SDS011;32506;52.826;-1.192;2023-03-14T11:08:00;6.97;;;1.40;;
46755;SDS011;32506;52.826;-1.192;2023-03-14T11:10:33;9.18;;;1.90;;
46755;SDS011;32506;52.826;-1.192;2023-03-14T11:21:13;6.80;;;1.30;;
46755;SDS011;32506;52.826;-1.192;2023-03-14T11:26:55;10.82;;;2.40;;
46755;SDS011;32506;52.826;-1.192;2023-03-14T11:35:28;7.88;;;1.55;;
46755;SDS011;32506;52.826;-1.192;2023-03-14T11:40:53;7.82;;;1.75;;
46755;SDS011;32506;52.826;-1.192;2023-03-14T11:43:37;10.35;;;1.52;;
46755;SDS011;32506;52.826;-1.192;2023-03-14T11:46:13;6.10;;;1.15;;
46755;SDS011;32506;52.826;-1.192;2023-03-14T11:49:11;13.05;;;2.97;;
46755;SDS011;32506;52.826;-1.192;2023-03-14T11:51:47;4.88;;;1.15;;
46755;SDS011;32506;52.826;-1.192;2023-03-14T11:57:11;7.03;;;1.42;;
46755;SDS011;32506;52.826;-1.192;2023-03-14T12:04:45;9.60;;;1.65;;
46755;SDS011;32506;52.826;-1.192;2023-03-14T12:10:29;8.52;;;1.80;;
46755;SDS011;32506;52.826;-1.192;2023-03-14T12:12:55;7.07;;;1.58;;
46755;SDS011;32506;52.826;-1.192;2023-03-14T12:15:22;7.55;;;1.25;;
46755;SDS011;32506;52.826;-1.192;2023-03-14T12:17:53;5.82;;;1.33;;
46755;SDS011;32506;52.826;-1.192;2023-03-14T12:20:21;8.38;;;1.52;;
46755;SDS011;32506;52.826;-1.192;2023-03-14T12:35:43;2.17;;;0.77;;
46755;SDS011;32506;52.826;-1.192;2023-03-14T12:38:13;7.47;;;1.25;;
46755;SDS011;32506;52.826;-1.192;2023-03-14T12:43:51;3.22;;;0.70;;
46755;SDS011;32506;52.826;-1.192;2023-03-14T12:48:46;3.70;;;0.75;;
46755;SDS011;32506;52.826;-1.192;2023-03-14T12:51:14;5.27;;;1.10;;
46755;SDS011;32506;52.826;-1.192;2023-03-14T13:01:55;4.32;;;0.75;;
46755;SDS011;32506;52.826;-1.192;2023-03-14T13:04:34;5.18;;;1.10;;
46755;SDS011;32506;52.826;-1.192;2023-03-14T13:07:12;5.38;;;0.85;;
46755;SDS011;32506;52.826;-1.192;2023-03-14T13:09:55;6.25;;;0.55;;
46755;SDS011;32506;52.826;-1.192;2023-03-14T13:12:27;4.38;;;0.70;;
46755;SDS011;32506;52.826;-1.192;2023-03-14T13:14:57;4.70;;;1.20;;
46755;SDS011;32506;52.826;-1.192;2023-03-14T13:17:27;4.00;;;0.68;;
46755;SDS011;32506;52.826;-1.192;2023-03-14T13:19:57;4.05;;;1.35;;
46755;SDS011;32506;52.826;-1.192;2023-03-14T13:22:28;3.65;;;0.60;;
46755;SDS011;32506;52.826;-1.192;2023-03-14T13:25:00;2.85;;;0.75;;
46755;SDS011;32506;52.826;-1.192;2023-03-14T13:27:35;4.40;;;1.00;;
46755;SDS011;32506;52.826;-1.192;2023-03-14T13:32:51;2.92;;;0.47;;
46755;SDS011;32506;52.826;-1.192;2023-03-14T13:35:25;1.80;;;0.40;;
46755;SDS011;32506;52.826;-1.192;2023-03-14T13:37:57;3.85;;;0.75;;
46755;SDS011;32506;52.826;-1.192;2023-03-14T13:40:25;2.85;;;0.60;;
46755;SDS011;32506;52.826;-1.192;2023-03-14T13:43:05;3.03;;;0.70;;
46755;SDS011;32506;52.826;-1.192;2023-03-14T13:45:43;3.47;;;0.77;;
46755;SDS011;32506;52.826;-1.192;2023-03-14T13:48:29;3.47;;;0.55;;
46755;SDS011;32506;52.826;-1.192;2023-03-14T13:51:06;3.00;;;0.50;;
46755;SDS011;32506;52.826;-1.192;2023-03-14T13:53:45;2.70;;;0.57;;
46755;SDS011;32506;52.826;-1.192;2023-03-14T13:56:19;3.72;;;0.85;;
46755;SDS011;32506;52.826;-1.192;2023-03-14T13:58:46;6.10;;;0.75;;
46755;SDS011;32506;52.826;-1.192;2023-03-14T14:01:18;3.13;;;0.82;;
46755;SDS011;32506;52.826;-1.192;2023-03-14T14:03:59;3.22;;;0.60;;
46755;SDS011;32506;52.826;-1.192;2023-03-14T14:09:10;3.80;;;0.98;;
46755;SDS011;32506;52.826;-1.192;2023-03-14T14:14:18;4.40;;;0.80;;
46755;SDS011;32506;52.826;-1.192;2023-03-14T14:16:57;3.20;;;0.60;;
46755;SDS011;32506;52.826;-1.192;2023-03-14T14:19:24;3.70;;;0.75;;
46755;SDS011;32506;52.826;-1.192;2023-03-14T14:21:53;3.33;;;0.70;;
46755;SDS011;32506;52.826;-1.192;2023-03-14T14:24:19;4.57;;;0.65;;
46755;SDS011;32506;52.826;-1.192;2023-03-14T14:26:50;5.45;;;0.75;;
46755;SDS011;32506;52.826;-1.192;2023-03-14T14:29:23;3.65;;;0.55;;
46755;SDS011;32506;52.826;-1.192;2023-03-14T14:32:03;2.70;;;0.70;;
46755;SDS011;32506;52.826;-1.192;2023-03-14T14:34:29;4.30;;;0.70;;
46755;SDS011;32506;52.826;-1.192;2023-03-14T14:37:02;4.78;;;0.80;;
46755;SDS011;32506;52.826;-1.192;2023-03-14T14:39:28;4.47;;;0.80;;
46755;SDS011;32506;52.826;-1.192;2023-03-14T14:41:55;3.50;;;0.80;;
46755;SDS011;32506;52.826;-1.192;2023-03-14T14:44:27;2.20;;;0.40;;
46755;SDS011;32506;52.826;-1.192;2023-03-14T14:46:55;3.10;;;0.80;;
46755;SDS011;32506;52.826;-1.192;2023-03-14T14:49:30;3.83;;;0.60;;
46755;SDS011;32506;52.826;-1.192;2023-03-14T14:55:00;3.40;;;0.70;;
46755;SDS011;32506;52.826;-1.192;2023-03-14T14:57:38;4.07;;;0.77;;
46755;SDS011;32506;52.826;-1.192;2023-03-14T15:00:06;2.97;;;0.70;;
46755;SDS011;32506;52.826;-1.192;2023-03-14T15:02:38;3.40;;;0.80;;
46755;SDS011;32506;52.826;-1.192;2023-03-14T15:05:13;4.35;;;0.80;;
46755;SDS011;32506;52.826;-1.192;2023-03-14T15:07:38;4.13;;;0.70;;
46755;SDS011;32506;52.826;-1.192;2023-03-14T15:10:04;3.60;;;0.60;;
46755;SDS011;32506;52.826;-1.192;2023-03-14T15:12:30;4.53;;;1.33;;
46755;SDS011;32506;52.826;-1.192;2023-03-14T15:14:55;3.83;;;0.80;;
46755;SDS011;32506;52.826;-1.192;2023-03-14T15:17:22;6.60;;;0.73;;
46755;SDS011;32506;52.826;-1.192;2023-03-14T15:19:48;5.05;;;0.90;;
46755;SDS011;32506;52.826;-1.192;2023-03-14T15:22:13;2.60;;;0.50;;
46755;SDS011;32506;52.826;-1.192;2023-03-14T15:24:39;2.38;;;0.40;;
46755;SDS011;32506;52.826;-1.192;2023-03-14T15:27:09;3.03;;;0.50;;
46755;SDS011;32506;52.826;-1.192;2023-03-14T15:29:39;4.68;;;0.80;;
46755;SDS011;32506;52.826;-1.192;2023-03-14T15:32:05;3.10;;;0.70;;
46755;SDS011;32506;52.826;-1.192;2023-03-14T15:34:30;4.47;;;0.80;;
46755;SDS011;32506;52.826;-1.192;2023-03-14T15:36:56;5.90;;;1.10;;
46755;SDS011;32506;52.826;-1.192;2023-03-14T15:39:21;4.88;;;0.88;;
46755;SDS011;32506;52.826;-1.192;2023-03-14T15:41:47;2.53;;;0.50;;
46755;SDS011;32506;52.826;-1.192;2023-03-14T15:44:12;3.20;;;0.80;;
46755;SDS011;32506;52.826;-1.192;2023-03-14T15:46:38;3.75;;;0.60;;
46755;SDS011;32506;52.826;-1.192;2023-03-14T15:49:03;4.50;;;0.55;;
46755;SDS011;32506;52.826;-1.192;2023-03-14T15:51:29;3.20;;;0.77;;
46755;SDS011;32506;52.826;-1.192;2023-03-14T15:53:54;4.15;;;0.75;;
46755;SDS011;32506;52.826;-1.192;2023-03-14T15:56:20;5.15;;;0.80;;
46755;SDS011;32506;52.826;-1.192;2023-03-14T15:58:48;3.60;;;0.75;;
46755;SDS011;32506;52.826;-1.192;2023-03-14T16:01:14;7.68;;;0.90;;
46755;SDS011;32506;52.826;-1.192;2023-03-14T16:03:43;2.88;;;0.88;;
46755;SDS011;32506;52.826;-1.192;2023-03-14T16:06:14;5.05;;;1.02;;
46755;SDS011;32506;52.826;-1.192;2023-03-14T16:08:40;4.15;;;0.60;;
46755;SDS011;32506;52.826;-1.192;2023-03-14T16:11:08;2.58;;;0.47;;
46755;SDS011;32506;52.826;-1.192;2023-03-14T16:13:34;6.13;;;1.00;;